»·PEaware :: USC243 KGCC-KCOD

USC243 :: KGCC-KCOD

FLIGHT INFORMATION

Flight Status: Arrived
Operator: Unknown
More flights by this operator :: More flights under this callsign
Pilot: Andy P. (22680)
Aircraft: GATES LEARJET LEARJET 35/36
(LJ35)
More flights by this aircraft type
Origin: KGCC Gillette-Campbell Co
United States
Destination: KCOD Yellowstone Regl
United States
More flights between these airports :: More routes between these airports
Route: CZI NICQE
File this flight plan on PilotEdge
Remarks:
Altitude:
(Current/Filed)
28,000ft
Speed:
(Current/Filed)
465kts
Departed: 27-Feb-19 12:46 PM
Arrived: 27-Feb-19 01:19 PM
Distance/Time
Traveled:
150nm/0:32
Distance/Time
To Go:
Arrived

Flight Plot

Page will automatically refresh every two minutes.

Flight plan parsing failed; only flown route is shown


Map Options




Map Legend


Flown Route
Filed Route
Departure Airport
Arrival Airport
Navaid (VOR, NDB)
Fix

Horizontal Profiles

Position Reports

Time Latitude Longitude Heading Altitude Ground
Speed
27-Feb-19 12:31 44.347369 -105.534866 0 4368ft 0kts
27-Feb-19 12:32 44.347369 -105.534866 0 4368ft 0kts
27-Feb-19 12:33 44.347369 -105.534866 0 4368ft 0kts
27-Feb-19 12:34 44.347369 -105.534866 0 4368ft 0kts
27-Feb-19 12:35 44.347369 -105.534866 0 4368ft 0kts
27-Feb-19 12:36 44.347369 -105.534866 0 4368ft 0kts
27-Feb-19 12:37 44.347369 -105.534866 0 4368ft 0kts
27-Feb-19 12:38 44.347369 -105.534866 0 4368ft 0kts
27-Feb-19 12:39 44.347369 -105.534866 0 4368ft 0kts
27-Feb-19 12:40 44.347370 -105.534866 359 4368ft 0kts
27-Feb-19 12:41 44.347371 -105.534866 359 4368ft 0kts
27-Feb-19 12:42 44.348656 -105.537944 334 4368ft 12kts
27-Feb-19 12:43 44.353543 -105.541473 348 4368ft 25kts
27-Feb-19 12:44 44.357079 -105.542930 262 4368ft 9kts
27-Feb-19 12:45 44.335084 -105.539802 183 5278ft 187kts
27-Feb-19 12:46 44.311405 -105.614794 270 9390ft 291kts
27-Feb-19 12:47 44.276948 -105.727657 242 14039ft 345kts
27-Feb-19 12:48 44.230981 -105.843908 249 18769ft 352kts
27-Feb-19 12:49 44.183248 -105.967083 244 22625ft 357kts
27-Feb-19 12:50 44.136305 -106.087760 249 25857ft 354kts
27-Feb-19 12:51 44.086409 -106.209235 243 27771ft 376kts
27-Feb-19 12:52 44.035481 -106.341907 246 28122ft 395kts
27-Feb-19 12:53 44.007144 -106.484637 275 28120ft 389kts
27-Feb-19 12:54 44.030990 -106.632789 277 28127ft 396kts
27-Feb-19 12:55 44.050757 -106.784379 279 28125ft 401kts
27-Feb-19 12:56 44.072134 -106.936997 279 28125ft 404kts
27-Feb-19 12:57 44.093801 -107.090959 279 28126ft 406kts
27-Feb-19 12:58 44.115438 -107.245894 278 28130ft 409kts
27-Feb-19 12:59 44.136921 -107.401262 278 28141ft 409kts
27-Feb-19 13:00 44.158226 -107.556971 278 28174ft 407kts
27-Feb-19 13:01 44.179183 -107.711803 278 28178ft 407kts
27-Feb-19 13:02 44.199121 -107.860161 277 26677ft 353kts
27-Feb-19 13:03 44.215544 -107.983853 277 24373ft 299kts
27-Feb-19 13:04 44.230056 -108.094658 277 22855ft 290kts
27-Feb-19 13:05 44.244190 -108.202939 277 20747ft 281kts
27-Feb-19 13:06 44.258113 -108.310554 277 18636ft 284kts
27-Feb-19 13:07 44.272179 -108.420052 277 16106ft 286kts
27-Feb-19 13:08 44.285139 -108.521523 277 14760ft 254kts
27-Feb-19 13:09 44.297542 -108.619488 278 13168ft 262kts
27-Feb-19 13:10 44.310369 -108.721597 278 11270ft 271kts
27-Feb-19 13:11 44.341322 -108.814214 323 9588ft 271kts
27-Feb-19 13:12 44.398071 -108.881397 320 8632ft 263kts
27-Feb-19 13:13 44.451894 -108.943916 319 7718ft 229kts
27-Feb-19 13:14 44.493266 -108.993314 319 6482ft 165kts
27-Feb-19 13:15 44.524584 -109.030129 321 6122ft 147kts
27-Feb-19 13:16 44.513964 -109.063959 128 5663ft 138kts
27-Feb-19 13:17 44.520100 -109.024010 52 5089ft 54kts
27-Feb-19 13:18 44.521492 -109.018995 228 5089ft 14kts
27-Feb-19 13:19 44.517281 -109.026632 230 5089ft 28kts
27-Feb-19 13:20 44.513773 -109.028439 126 5089ft 13kts
27-Feb-19 13:21 44.513411 -109.028137 188 5089ft 0kts
27-Feb-19 13:22 44.513411 -109.028137 188 5089ft 0kts
27-Feb-19 13:23 44.513411 -109.028137 188 5089ft 0kts
27-Feb-19 13:24 44.513411 -109.028137 188 5089ft 0kts
27-Feb-19 13:25 44.513411 -109.028137 188 5089ft 0kts
27-Feb-19 13:26 44.513411 -109.028137 188 5089ft 0kts
27-Feb-19 13:27 44.513411 -109.028137 188 5089ft 0kts
27-Feb-19 13:28 44.513411 -109.028137 188 5089ft 0kts
27-Feb-19 13:29 44.513411 -109.028137 188 5089ft 0kts
27-Feb-19 13:30 44.513411 -109.028137 188 5089ft 0kts
27-Feb-19 13:31 44.513411 -109.028137 188 5089ft 0kts
27-Feb-19 13:32 44.513411 -109.028137 188 5089ft 0kts

Navigation Log

Ident Type
Flight plan parsing failed, navigation log unavailable